createdAt,value
2019-03-11T00:00:41.846Z,2.60
2019-03-11T00:03:10.439Z,2.60
2019-03-11T00:05:39.069Z,2.70
2019-03-11T00:08:07.739Z,2.70
2019-03-11T00:10:38.119Z,2.70
2019-03-11T00:13:06.697Z,2.60
2019-03-11T00:15:35.277Z,2.70
2019-03-11T00:18:04.338Z,2.70
2019-03-11T00:20:33.206Z,2.80
2019-03-11T00:23:01.802Z,2.90
2019-03-11T00:25:30.373Z,2.90
2019-03-11T00:27:58.961Z,2.90
2019-03-11T00:30:28.089Z,3.00
2019-03-11T00:32:58.010Z,3.00
2019-03-11T00:35:28.105Z,3.10
2019-03-11T00:37:57.500Z,3.10
2019-03-11T00:40:26.085Z,3.20
2019-03-11T00:42:55.338Z,3.20
2019-03-11T00:45:24.444Z,3.30
2019-03-11T00:48:01.429Z,3.30
2019-03-11T00:50:25.114Z,3.30
2019-03-11T00:52:54.160Z,3.40
2019-03-11T00:55:24.322Z,3.40
2019-03-11T00:57:52.915Z,3.40
2019-03-11T01:00:24.554Z,3.50
2019-03-11T01:02:53.154Z,3.50
2019-03-11T01:05:23.033Z,3.50
2019-03-11T01:07:53.226Z,3.50
2019-03-11T01:10:22.292Z,3.60
2019-03-11T01:12:51.201Z,3.50
2019-03-11T01:15:19.848Z,3.50
2019-03-11T01:17:48.647Z,3.40
2019-03-11T01:20:17.555Z,3.40
2019-03-11T01:22:46.209Z,3.30
2019-03-11T01:25:18.039Z,3.30
2019-03-11T01:27:46.698Z,3.30
2019-03-11T01:30:16.465Z,3.30
2019-03-11T01:32:46.580Z,3.30
2019-03-11T01:35:15.889Z,3.20
2019-03-11T01:37:46.151Z,3.20
2019-03-11T01:40:17.015Z,3.10
2019-03-11T01:42:45.943Z,3.10
2019-03-11T01:45:17.299Z,3.00
2019-03-11T01:47:46.123Z,2.90
2019-03-11T01:50:15.226Z,2.90
2019-03-11T01:52:45.462Z,2.90
2019-03-11T01:55:16.029Z,2.90
2019-03-11T01:57:47.477Z,2.90
2019-03-11T02:00:17.562Z,2.90
2019-03-11T02:02:46.286Z,2.90
2019-03-11T02:05:14.912Z,2.80
2019-03-11T02:07:43.565Z,2.70
2019-03-11T02:10:17.166Z,2.70
2019-03-11T02:12:46.074Z,2.70
2019-03-11T02:15:17.046Z,2.60
2019-03-11T02:17:45.686Z,2.50
2019-03-11T02:20:16.418Z,2.50
2019-03-11T02:22:44.995Z,2.60
2019-03-11T02:25:15.531Z,2.60
2019-03-11T02:27:44.092Z,2.50
2019-03-11T02:30:14.126Z,2.50
2019-03-11T02:32:43.968Z,2.50
2019-03-11T02:35:13.202Z,2.50
2019-03-11T02:37:43.394Z,2.50
2019-03-11T02:40:15.072Z,2.50
2019-03-11T02:42:44.195Z,2.50
2019-03-11T02:45:13.168Z,2.50
2019-03-11T02:47:42.117Z,2.50
2019-03-11T02:50:11.454Z,2.50
2019-03-11T02:52:41.194Z,2.50
2019-03-11T02:55:09.956Z,2.50
2019-03-11T02:57:39.288Z,2.50
2019-03-11T03:00:20.000Z,2.60
2019-03-11T03:02:54.080Z,2.60
2019-03-11T03:05:29.156Z,2.70
2019-03-11T03:07:57.789Z,2.70
2019-03-11T03:10:27.968Z,2.70
2019-03-11T03:12:56.497Z,2.70
2019-03-11T03:15:25.161Z,2.80
2019-03-11T03:17:55.974Z,2.70
2019-03-11T03:20:25.339Z,2.70
2019-03-11T03:22:54.385Z,2.70
2019-03-11T03:25:34.097Z,2.70
2019-03-11T03:27:53.743Z,2.70
2019-03-11T03:30:23.707Z,2.70
2019-03-11T03:32:52.266Z,2.70
2019-03-11T03:35:22.516Z,2.70
2019-03-11T03:37:53.624Z,2.60
2019-03-11T03:40:22.281Z,2.60
2019-03-11T03:42:52.988Z,2.60
2019-03-11T03:45:23.615Z,2.60
2019-03-11T03:47:53.913Z,2.60
2019-03-11T03:50:26.725Z,2.60
2019-03-11T03:52:55.365Z,2.50
2019-03-11T03:55:24.513Z,2.50
2019-03-11T03:57:54.125Z,2.50
2019-03-11T04:00:24.710Z,2.50
2019-03-11T04:02:54.885Z,2.50
2019-03-11T04:05:23.566Z,2.50
2019-03-11T04:07:52.312Z,2.50
2019-03-11T04:10:21.338Z,2.50
2019-03-11T04:12:50.632Z,2.50
2019-03-11T04:15:19.360Z,2.50
2019-03-11T04:17:48.055Z,2.60
2019-03-11T04:20:22.069Z,2.60
2019-03-11T04:22:52.645Z,2.70
2019-03-11T04:25:22.520Z,2.70
2019-03-11T04:27:51.098Z,2.80
2019-03-11T04:30:26.530Z,2.80
2019-03-11T04:32:56.316Z,2.80
2019-03-11T04:35:27.661Z,2.90
2019-03-11T04:37:56.788Z,2.90
2019-03-11T04:40:25.369Z,2.90
2019-03-11T04:42:55.478Z,2.90
2019-03-11T04:45:24.395Z,2.90
2019-03-11T04:47:52.964Z,2.90
2019-03-11T04:50:22.379Z,3.00
2019-03-11T04:52:51.393Z,3.00
2019-03-11T04:55:19.971Z,2.90
2019-03-11T04:57:56.266Z,2.90
2019-03-11T05:00:32.389Z,2.90
2019-03-11T05:03:01.970Z,2.90
2019-03-11T05:05:32.378Z,2.90
2019-03-11T05:08:00.950Z,2.90
2019-03-11T05:10:30.036Z,2.90
2019-03-11T05:12:58.595Z,2.90
2019-03-11T05:15:29.061Z,2.90
2019-03-11T05:17:58.590Z,2.90
2019-03-11T05:20:27.446Z,2.90
2019-03-11T05:22:56.002Z,2.80
2019-03-11T05:25:24.531Z,2.80
2019-03-11T05:27:53.878Z,2.90
2019-03-11T05:30:22.542Z,2.90
2019-03-11T05:32:51.119Z,2.90
2019-03-11T05:35:19.932Z,2.90
2019-03-11T05:37:49.079Z,2.90
2019-03-11T05:40:18.504Z,2.90
2019-03-11T05:42:47.134Z,2.80
2019-03-11T05:45:18.617Z,2.90
2019-03-11T05:47:47.311Z,3.00
2019-03-11T05:50:18.039Z,3.00
2019-03-11T05:52:48.463Z,3.00
2019-03-11T05:55:17.691Z,3.00
2019-03-11T05:57:48.306Z,3.00
2019-03-11T06:00:20.169Z,3.00
2019-03-11T06:02:48.799Z,3.00
2019-03-11T06:05:18.593Z,3.00
2019-03-11T06:07:49.905Z,3.00
2019-03-11T06:10:18.558Z,3.00
2019-03-11T06:12:47.133Z,3.00
2019-03-11T06:15:16.786Z,2.90
2019-03-11T06:17:45.446Z,3.00
2019-03-11T06:20:17.288Z,3.00
2019-03-11T06:22:46.194Z,2.90
2019-03-11T06:25:14.778Z,2.90
2019-03-11T06:27:43.338Z,3.00
2019-03-11T06:30:14.012Z,3.00
2019-03-11T06:32:42.641Z,3.00
2019-03-11T06:35:13.526Z,3.10
2019-03-11T06:37:42.298Z,3.10
2019-03-11T06:40:12.332Z,3.10
2019-03-11T06:42:40.896Z,3.20
2019-03-11T06:45:11.872Z,3.20
2019-03-11T06:47:40.553Z,3.30
2019-03-11T06:50:15.207Z,3.30
2019-03-11T06:52:44.243Z,3.40
2019-03-11T06:55:13.185Z,3.40
2019-03-11T06:57:42.114Z,3.40
2019-03-11T07:00:16.870Z,3.40
2019-03-11T07:02:45.774Z,3.30
2019-03-11T07:05:19.937Z,3.30
2019-03-11T07:07:45.493Z,3.20
2019-03-11T07:10:17.097Z,3.20
2019-03-11T07:12:45.736Z,3.10
2019-03-11T07:15:16.093Z,3.20
2019-03-11T07:17:46.081Z,3.10
2019-03-11T07:20:16.813Z,3.10
2019-03-11T07:22:46.127Z,3.10
2019-03-11T07:25:15.199Z,3.10
2019-03-11T07:27:43.919Z,3.00
2019-03-11T07:30:16.707Z,3.10
2019-03-11T07:32:45.363Z,3.00
2019-03-11T07:35:14.063Z,2.90
2019-03-11T07:37:42.718Z,2.80
2019-03-11T07:40:14.017Z,2.80
2019-03-11T07:42:44.121Z,2.80
2019-03-11T07:45:16.965Z,2.80
2019-03-11T07:47:45.606Z,2.90
2019-03-11T07:50:16.098Z,2.90
2019-03-11T07:52:45.727Z,3.00
2019-03-11T07:55:14.767Z,3.00
2019-03-11T07:57:44.635Z,3.10
2019-03-11T08:00:18.894Z,3.20
2019-03-11T08:02:47.623Z,3.20
2019-03-11T08:05:16.287Z,3.20
2019-03-11T08:07:44.882Z,3.30
2019-03-11T08:10:24.897Z,3.60
2019-03-11T08:12:55.194Z,3.90
2019-03-11T08:15:24.654Z,3.90
2019-03-11T08:17:54.204Z,3.70
2019-03-11T08:20:23.290Z,3.70
2019-03-11T08:22:51.879Z,3.60
2019-03-11T08:25:20.602Z,3.50
2019-03-11T08:27:49.181Z,3.50
2019-03-11T08:30:19.871Z,3.40
2019-03-11T08:32:48.584Z,3.30
2019-03-11T08:35:17.120Z,3.40
2019-03-11T08:37:45.884Z,3.40
2019-03-11T08:40:18.889Z,3.40
2019-03-11T08:42:47.663Z,3.60
2019-03-11T08:45:18.524Z,3.50
2019-03-11T08:47:47.294Z,3.50
2019-03-11T08:50:16.437Z,3.30
2019-03-11T08:52:45.990Z,3.30
2019-03-11T08:55:15.089Z,3.20
2019-03-11T08:57:45.993Z,3.10
2019-03-11T09:00:18.496Z,3.00
2019-03-11T09:02:47.085Z,2.90
2019-03-11T09:05:15.910Z,2.90
2019-03-11T09:07:44.504Z,2.80
2019-03-11T09:10:16.941Z,2.90
2019-03-11T09:12:45.526Z,3.00
2019-03-11T09:15:16.381Z,3.10
2019-03-11T09:17:44.969Z,3.20
2019-03-11T09:20:15.862Z,3.40
2019-03-11T09:22:44.451Z,3.40
2019-03-11T09:25:21.464Z,3.30
2019-03-11T09:27:51.067Z,3.40
2019-03-11T09:30:21.026Z,3.40
2019-03-11T09:32:49.677Z,3.40
2019-03-11T09:35:18.866Z,3.30
2019-03-11T09:37:47.523Z,3.30
2019-03-11T09:40:17.713Z,3.30
2019-03-11T09:42:46.429Z,3.40
2019-03-11T09:45:16.913Z,3.50
2019-03-11T09:47:45.568Z,3.60
2019-03-11T09:50:15.446Z,3.70
2019-03-11T09:52:44.118Z,3.70
2019-03-11T09:55:23.796Z,3.70
2019-03-11T09:57:52.397Z,3.80
2019-03-11T10:00:35.640Z,3.90
2019-03-11T10:03:04.295Z,4.10
2019-03-11T10:05:34.528Z,4.20
2019-03-11T10:08:03.416Z,4.40
2019-03-11T10:10:33.723Z,4.50
2019-03-11T10:13:03.978Z,4.50
2019-03-11T10:15:36.804Z,4.60
2019-03-11T10:18:06.489Z,4.60
2019-03-11T10:20:36.151Z,4.70
2019-03-11T10:23:07.229Z,4.80
2019-03-11T10:25:35.787Z,4.90
2019-03-11T10:28:05.384Z,4.90
2019-03-11T10:30:34.025Z,5.00
2019-03-11T10:33:04.230Z,4.80
2019-03-11T10:35:35.392Z,4.80
2019-03-11T10:38:04.768Z,4.90
2019-03-11T10:40:34.854Z,5.00
2019-03-11T10:43:03.507Z,5.10
2019-03-11T10:45:32.436Z,5.10
2019-03-11T10:48:01.403Z,5.30
2019-03-11T10:50:30.049Z,5.40
2019-03-11T10:53:00.391Z,5.40
2019-03-11T10:55:30.218Z,5.50
2019-03-11T10:58:00.722Z,5.50
2019-03-11T11:00:35.076Z,5.60
2019-03-11T11:03:03.659Z,5.70
2019-03-11T11:05:35.367Z,5.70
2019-03-11T11:08:04.215Z,5.70
2019-03-11T11:10:35.994Z,5.60
2019-03-11T11:13:04.971Z,5.60
2019-03-11T11:15:34.379Z,5.50
2019-03-11T11:18:03.034Z,5.50
2019-03-11T11:20:35.092Z,5.50
2019-03-11T11:23:03.573Z,5.50
2019-03-11T11:25:32.654Z,5.50
2019-03-11T11:28:01.246Z,5.50
2019-03-11T11:30:31.851Z,5.60
2019-03-11T11:33:00.429Z,5.60
2019-03-11T11:35:28.990Z,5.60
2019-03-11T11:37:59.457Z,5.60
2019-03-11T11:40:29.026Z,5.60
2019-03-11T11:42:57.677Z,5.60
2019-03-11T11:45:28.912Z,5.60
2019-03-11T11:47:57.615Z,5.50
2019-03-11T11:50:26.825Z,5.50
2019-03-11T11:52:55.510Z,5.50
2019-03-11T11:55:25.772Z,5.60
2019-03-11T11:57:55.869Z,6.00
2019-03-11T12:00:30.623Z,6.40
2019-03-11T12:03:01.081Z,6.50
2019-03-11T12:05:29.968Z,6.50
2019-03-11T12:08:03.286Z,6.40
2019-03-11T12:10:32.926Z,6.30
2019-03-11T12:13:02.222Z,5.90
2019-03-11T12:15:31.115Z,5.50
2019-03-11T12:18:00.069Z,5.40
2019-03-11T12:20:29.603Z,5.40
2019-03-11T12:22:59.338Z,5.50
2019-03-11T12:25:27.989Z,5.70
2019-03-11T12:27:58.171Z,5.90
2019-03-11T12:30:29.093Z,6.00
2019-03-11T12:32:58.731Z,6.20
2019-03-11T12:35:27.486Z,6.30
2019-03-11T12:37:57.526Z,6.30
2019-03-11T12:40:26.184Z,6.20
2019-03-11T12:42:55.801Z,6.10
2019-03-11T12:45:26.594Z,6.00
2019-03-11T12:47:56.674Z,6.10
2019-03-11T12:50:30.149Z,6.10
2019-03-11T12:53:00.656Z,6.20
2019-03-11T12:55:29.312Z,6.20
2019-03-11T12:57:57.953Z,6.00
2019-03-11T13:00:26.707Z,5.30
2019-03-11T13:02:55.635Z,4.90
2019-03-11T13:05:25.244Z,4.80
2019-03-11T13:07:54.848Z,4.90
2019-03-11T13:10:30.839Z,5.00
2019-03-11T13:12:59.854Z,5.30
2019-03-11T13:15:30.460Z,5.40
2019-03-11T13:18:18.070Z,5.50
2019-03-11T13:20:47.447Z,5.60
2019-03-11T13:23:16.443Z,5.60
2019-03-11T13:25:45.106Z,5.60
2019-03-11T13:28:13.613Z,5.60
2019-03-11T13:30:43.739Z,5.70
2019-03-11T13:33:12.293Z,5.80
2019-03-11T13:35:42.325Z,6.00
2019-03-11T13:38:10.891Z,6.20
2019-03-11T13:40:39.611Z,6.40
2019-03-11T13:43:09.535Z,6.40
2019-03-11T13:45:39.378Z,6.40
2019-03-11T13:48:09.260Z,6.20
2019-03-11T13:50:37.836Z,6.40
2019-03-11T13:53:06.405Z,6.40
2019-03-11T13:55:35.764Z,6.40
2019-03-11T13:58:05.306Z,6.40
2019-03-11T14:00:33.894Z,6.40
2019-03-11T14:03:04.319Z,6.30
2019-03-11T14:05:33.925Z,6.30
2019-03-11T14:08:02.437Z,6.20
2019-03-11T14:10:31.053Z,6.20
2019-03-11T14:13:01.473Z,6.10
2019-03-11T14:15:30.194Z,6.00
2019-03-11T14:17:58.750Z,6.00
2019-03-11T14:20:27.401Z,6.00
2019-03-11T14:22:57.342Z,6.20
2019-03-11T14:25:25.929Z,6.30
2019-03-11T14:27:56.064Z,6.40
2019-03-11T14:30:25.560Z,6.40
2019-03-11T14:32:54.141Z,6.40
2019-03-11T14:35:23.066Z,6.30
2019-03-11T14:37:51.697Z,6.20
2019-03-11T14:40:20.917Z,6.00
2019-03-11T14:42:49.469Z,5.60
2019-03-11T14:45:21.086Z,5.40
2019-03-11T14:47:49.677Z,5.20
2019-03-11T14:50:19.488Z,5.20
2019-03-11T14:52:49.919Z,5.20
2019-03-11T14:55:18.501Z,5.30
2019-03-11T14:57:48.248Z,5.40
2019-03-11T15:00:19.299Z,5.50
2019-03-11T15:02:49.037Z,5.60
2019-03-11T15:05:19.614Z,5.70
2019-03-11T15:07:48.987Z,5.70
2019-03-11T15:10:19.251Z,5.60
2019-03-11T15:12:49.510Z,5.40
2019-03-11T15:15:22.392Z,5.30
2019-03-11T15:17:54.087Z,5.10
2019-03-11T15:20:23.301Z,5.00
2019-03-11T15:22:53.377Z,4.90
2019-03-11T15:25:24.442Z,4.80
2019-03-11T15:27:53.090Z,4.80
2019-03-11T15:30:23.994Z,4.70
2019-03-11T15:32:53.109Z,4.80
2019-03-11T15:35:21.689Z,4.80
2019-03-11T15:37:51.439Z,4.70
2019-03-11T15:40:20.133Z,4.70
2019-03-11T15:42:49.943Z,4.70
2019-03-11T15:45:19.560Z,4.60
2019-03-11T15:47:48.245Z,4.60
2019-03-11T15:50:29.910Z,4.60
2019-03-11T15:52:58.492Z,4.70
2019-03-11T15:55:27.726Z,4.70
2019-03-11T15:57:56.798Z,4.80
2019-03-11T16:00:25.351Z,4.80
2019-03-11T16:02:54.613Z,4.90
2019-03-11T16:05:24.051Z,4.90
2019-03-11T16:07:54.261Z,4.90
2019-03-11T16:10:23.058Z,4.90
2019-03-11T16:12:55.688Z,4.90
2019-03-11T16:15:24.758Z,4.90
2019-03-11T16:17:53.821Z,4.90
2019-03-11T16:20:24.638Z,4.90
2019-03-11T16:22:54.815Z,4.90
2019-03-11T16:25:26.023Z,4.80
2019-03-11T16:27:54.607Z,4.80
2019-03-11T16:30:24.753Z,4.80
2019-03-11T16:33:00.835Z,4.70
2019-03-11T16:35:28.378Z,4.80
2019-03-11T16:37:58.711Z,4.70
2019-03-11T16:40:28.818Z,4.70
2019-03-11T16:42:57.890Z,4.70
2019-03-11T16:45:26.712Z,4.70
2019-03-11T16:47:55.363Z,4.70
2019-03-11T16:50:29.144Z,4.70
2019-03-11T16:52:57.738Z,4.70
2019-03-11T16:55:34.690Z,4.70
2019-03-11T16:58:04.811Z,4.80
2019-03-11T17:00:35.287Z,4.80
2019-03-11T17:03:03.930Z,4.80
2019-03-11T17:05:34.116Z,4.80
2019-03-11T17:08:04.162Z,4.70
2019-03-11T17:10:32.791Z,4.60
2019-03-11T17:13:03.516Z,4.60
2019-03-11T17:15:32.085Z,4.50
2019-03-11T17:18:03.057Z,4.50
2019-03-11T17:20:31.623Z,4.50
2019-03-11T17:23:00.280Z,4.50
2019-03-11T17:25:28.943Z,4.50
2019-03-11T17:27:59.379Z,4.50
2019-03-11T17:30:28.293Z,4.50
2019-03-11T17:32:57.994Z,4.50
2019-03-11T17:35:27.193Z,4.60
2019-03-11T17:37:57.872Z,4.60
2019-03-11T17:40:29.365Z,4.60
2019-03-11T17:42:58.735Z,4.60
2019-03-11T17:45:28.932Z,4.60
2019-03-11T17:47:57.616Z,4.70
2019-03-11T17:50:27.195Z,4.70
2019-03-11T17:52:56.947Z,4.70
2019-03-11T17:55:25.846Z,4.70
2019-03-11T17:57:54.666Z,4.70
2019-03-11T18:00:28.701Z,4.70
2019-03-11T18:02:57.357Z,4.70
2019-03-11T18:05:27.395Z,4.80
2019-03-11T18:07:57.355Z,4.80
2019-03-11T18:10:26.006Z,4.90
2019-03-11T18:12:56.480Z,4.90
2019-03-11T18:15:25.189Z,4.90
2019-03-11T18:17:54.773Z,4.80
2019-03-11T18:20:26.531Z,4.90
2019-03-11T18:22:56.290Z,4.80
2019-03-11T18:25:26.198Z,4.80
2019-03-11T18:27:55.666Z,4.80
2019-03-11T18:30:32.142Z,4.80
2019-03-11T18:33:00.785Z,4.80
2019-03-11T18:35:33.809Z,4.80
2019-03-11T18:38:04.459Z,4.70
2019-03-11T18:40:32.387Z,4.60
2019-03-11T18:43:05.180Z,4.50
2019-03-11T18:45:34.100Z,4.50
2019-03-11T18:48:04.003Z,4.50
2019-03-11T18:50:34.103Z,4.40
2019-03-11T18:53:04.035Z,4.40
2019-03-11T18:55:32.694Z,4.50
2019-03-11T18:58:01.911Z,4.40
2019-03-11T19:00:32.095Z,4.40
2019-03-11T19:03:01.261Z,4.40
2019-03-11T19:05:31.662Z,4.40
2019-03-11T19:08:01.922Z,4.40
2019-03-11T19:10:30.754Z,4.40
2019-03-11T19:12:59.644Z,4.50
2019-03-11T19:15:28.337Z,4.50
2019-03-11T19:17:58.916Z,4.50
2019-03-11T19:20:27.578Z,4.50
2019-03-11T19:22:56.225Z,4.50
2019-03-11T19:25:24.824Z,4.40
2019-03-11T19:27:54.982Z,4.40
2019-03-11T19:30:25.833Z,4.40
2019-03-11T19:32:54.397Z,4.30
2019-03-11T19:35:23.139Z,4.20
2019-03-11T19:37:52.331Z,4.20
2019-03-11T19:40:28.748Z,4.10
2019-03-11T19:42:58.044Z,4.10
2019-03-11T19:45:27.207Z,4.10
2019-03-11T19:47:55.950Z,4.10
2019-03-11T19:50:24.633Z,4.10
2019-03-11T19:52:59.232Z,4.10
2019-03-11T19:55:24.293Z,4.10
2019-03-11T19:57:52.853Z,4.10
2019-03-11T20:00:22.309Z,4.10
2019-03-11T20:02:50.971Z,4.20
2019-03-11T20:05:22.638Z,4.20
2019-03-11T20:07:51.273Z,4.20
2019-03-11T20:10:21.472Z,4.30
2019-03-11T20:12:50.134Z,4.20
2019-03-11T20:15:18.690Z,4.20
2019-03-11T20:17:47.606Z,4.30
2019-03-11T20:20:17.672Z,4.30
2019-03-11T20:22:47.403Z,4.30
2019-03-11T20:25:18.789Z,4.40
2019-03-11T20:27:48.145Z,4.40
2019-03-11T20:30:19.005Z,4.40
2019-03-11T20:32:47.709Z,4.40
2019-03-11T20:35:17.630Z,4.40
2019-03-11T20:37:46.572Z,4.40
2019-03-11T20:40:15.484Z,4.40
2019-03-11T20:42:44.087Z,4.50
2019-03-11T20:45:17.341Z,4.50
2019-03-11T20:47:46.614Z,4.40
2019-03-11T20:50:16.163Z,4.40
2019-03-11T20:52:44.765Z,4.40
2019-03-11T20:55:17.847Z,4.40
2019-03-11T20:57:46.732Z,4.30
2019-03-11T21:00:24.522Z,4.20
2019-03-11T21:02:54.186Z,4.20
2019-03-11T21:05:26.149Z,4.20
2019-03-11T21:07:54.805Z,4.20
2019-03-11T21:10:23.450Z,4.20
2019-03-11T21:12:52.208Z,4.30
2019-03-11T21:15:20.815Z,4.20
2019-03-11T21:17:49.420Z,4.20
2019-03-11T21:20:18.525Z,4.20
2019-03-11T21:22:47.130Z,4.20
2019-03-11T21:25:17.536Z,4.10
2019-03-11T21:27:46.216Z,4.20
2019-03-11T21:30:17.643Z,4.20
2019-03-11T21:32:46.184Z,4.20
2019-03-11T21:35:15.265Z,4.20
2019-03-11T21:37:44.063Z,4.20
2019-03-11T21:40:15.922Z,4.30
2019-03-11T21:42:44.427Z,4.30
2019-03-11T21:45:14.575Z,4.40
2019-03-11T21:47:43.188Z,4.40
2019-03-11T21:50:22.757Z,4.40
2019-03-11T21:52:52.415Z,4.40
2019-03-11T21:55:22.510Z,4.50
2019-03-11T21:57:52.341Z,4.40
2019-03-11T22:00:34.701Z,4.40
2019-03-11T22:02:57.239Z,4.50
2019-03-11T22:05:25.902Z,4.40
2019-03-11T22:07:56.417Z,4.50
2019-03-11T22:10:25.658Z,4.50
2019-03-11T22:12:54.403Z,4.50
2019-03-11T22:15:25.097Z,4.50
2019-03-11T22:17:54.222Z,4.50
2019-03-11T22:20:23.180Z,4.50
2019-03-11T22:22:51.719Z,4.40
2019-03-11T22:25:22.549Z,4.40
2019-03-11T22:27:52.862Z,4.40
2019-03-11T22:30:28.589Z,4.30
2019-03-11T22:32:58.693Z,4.30
2019-03-11T22:35:29.106Z,4.30
2019-03-11T22:37:57.520Z,4.30
2019-03-11T22:40:26.639Z,4.30
2019-03-11T22:42:55.255Z,4.30
2019-03-11T22:45:23.880Z,4.20
2019-03-11T22:47:52.685Z,4.20
2019-03-11T22:50:21.903Z,4.10
2019-03-11T22:52:50.562Z,4.10
2019-03-11T22:55:22.244Z,4.00
2019-03-11T22:57:50.738Z,4.00
2019-03-11T23:00:30.759Z,4.00
2019-03-11T23:02:59.442Z,4.00
2019-03-11T23:05:28.122Z,3.90
2019-03-11T23:07:57.318Z,3.90
2019-03-11T23:10:27.339Z,3.90
2019-03-11T23:12:55.982Z,3.90
2019-03-11T23:15:24.557Z,3.90
2019-03-11T23:17:53.046Z,3.90
2019-03-11T23:20:22.321Z,3.90
2019-03-11T23:22:50.959Z,3.80
2019-03-11T23:25:19.551Z,3.80
2019-03-11T23:27:48.141Z,3.80
2019-03-11T23:30:16.837Z,3.70
2019-03-11T23:32:45.423Z,3.70
2019-03-11T23:35:14.414Z,3.70
2019-03-11T23:37:43.001Z,3.70
2019-03-11T23:40:12.540Z,3.80
2019-03-11T23:42:41.720Z,3.80
2019-03-11T23:45:11.525Z,3.90
2019-03-11T23:47:40.099Z,4.00
2019-03-11T23:50:11.262Z,4.00
2019-03-11T23:52:39.782Z,4.10
2019-03-11T23:55:12.287Z,4.10
2019-03-11T23:57:41.678Z,4.10
